createdAt,value
2022-12-25T00:02:23.945Z,100806.31
2022-12-25T00:04:51.896Z,100804.44
2022-12-25T00:07:19.816Z,100799.81
2022-12-25T00:09:47.778Z,100799.56
2022-12-25T00:12:17.144Z,100815.78
2022-12-25T00:14:45.196Z,100816.06
2022-12-25T00:17:13.145Z,100820.66
2022-12-25T00:19:41.100Z,100823.06
2022-12-25T00:22:09.370Z,100829.81
2022-12-25T00:24:37.356Z,100826.28
2022-12-25T00:27:05.473Z,100829.97
2022-12-25T00:29:34.797Z,100825.28
2022-12-25T00:32:02.827Z,100823.94
2022-12-25T00:34:30.786Z,100832.06
2022-12-25T00:36:58.782Z,100818.88
2022-12-25T00:39:26.914Z,100828.97
2022-12-25T00:42:11.922Z,100828.13
2022-12-25T00:44:41.222Z,100815.53
2022-12-25T00:47:09.250Z,100831.06
2022-12-25T00:49:37.196Z,100829.56
2022-12-25T00:52:05.392Z,100831.44
2022-12-25T00:54:33.393Z,100833.84
2022-12-25T00:57:01.390Z,100827.22
2022-12-25T00:59:32.556Z,100855.84
2022-12-25T01:02:23.061Z,100843.97
2022-12-25T01:04:52.077Z,100842.16
2022-12-25T01:07:20.825Z,100845.75
2022-12-25T01:10:07.100Z,100845.44
2022-12-25T01:12:37.065Z,100830.41
2022-12-25T01:15:06.507Z,100830.84
2022-12-25T01:17:36.583Z,100827.31
2022-12-25T01:20:05.719Z,100837.22
2022-12-25T01:22:33.709Z,100835.16
2022-12-25T01:25:01.643Z,100842.28
2022-12-25T01:27:29.840Z,100841.41
2022-12-25T01:29:57.809Z,100843.47
2022-12-25T01:32:26.077Z,100844.53
2022-12-25T01:34:56.279Z,100842.56
2022-12-25T01:37:25.063Z,100847.25
2022-12-25T01:39:53.037Z,100843.50
2022-12-25T01:42:23.729Z,100848.97
2022-12-25T01:45:28.181Z,100852.88
2022-12-25T01:47:56.191Z,100859.28
2022-12-25T01:50:26.052Z,100862.88
2022-12-25T01:52:55.514Z,100860.19
2022-12-25T01:55:23.936Z,100857.59
2022-12-25T01:57:51.961Z,100859.97
2022-12-25T02:00:20.056Z,100861.28
2022-12-25T02:02:49.021Z,100849.28
2022-12-25T02:05:22.488Z,100852.25
2022-12-25T02:07:52.287Z,100859.03
2022-12-25T02:10:20.625Z,100856.69
2022-12-25T02:12:49.901Z,100855.84
2022-12-25T02:15:21.024Z,100840.84
2022-12-25T02:17:58.385Z,100843.94
2022-12-25T02:21:01.673Z,100850.84
2022-12-25T02:24:00.735Z,100861.94
2022-12-25T02:26:51.804Z,100863.97
2022-12-25T02:29:26.533Z,100849.72
2022-12-25T02:32:00.517Z,100859.41
2022-12-25T02:34:36.107Z,100870.16
2022-12-25T02:37:07.797Z,100864.94
2022-12-25T02:39:59.652Z,100868.47
2022-12-25T02:43:06.029Z,100861.72
2022-12-25T02:45:56.778Z,100866.72
2022-12-25T02:48:44.850Z,100853.50
2022-12-25T02:51:33.722Z,100849.47
2022-12-25T02:54:23.103Z,100869.84
2022-12-25T02:57:11.493Z,100865.81
2022-12-25T03:00:00.966Z,100865.03
2022-12-25T03:02:50.201Z,100845.06
2022-12-25T03:05:39.831Z,100859.66
2022-12-25T03:08:12.214Z,100869.09
2022-12-25T03:11:02.894Z,100870.69
2022-12-25T03:13:35.283Z,100875.69
2022-12-25T03:16:21.110Z,100878.78
2022-12-25T03:18:50.527Z,100879.66
2022-12-25T03:21:35.655Z,100881.19
2022-12-25T03:24:17.448Z,100878.44
2022-12-25T03:26:58.051Z,100882.78
2022-12-25T03:29:45.381Z,100863.34
2022-12-25T03:32:23.870Z,100884.81
2022-12-25T03:35:20.340Z,100888.78
2022-12-25T03:38:26.169Z,100885.59
2022-12-25T03:41:19.759Z,100902.00
2022-12-25T03:44:12.794Z,100891.31
2022-12-25T03:47:05.945Z,100898.66
2022-12-25T03:50:02.516Z,100895.00
2022-12-25T03:52:50.623Z,100901.41
2022-12-25T03:55:38.336Z,100909.00
2022-12-25T03:58:23.728Z,100908.72
2022-12-25T04:01:09.282Z,100913.63
2022-12-25T04:03:54.791Z,100916.69
2022-12-25T04:06:40.287Z,100913.38
2022-12-25T04:09:27.275Z,100919.34
2022-12-25T04:12:12.727Z,100919.28
2022-12-25T04:14:58.136Z,100930.44
2022-12-25T04:17:51.972Z,100924.72
2022-12-25T04:20:37.417Z,100940.78
2022-12-25T04:23:22.812Z,100930.94
2022-12-25T04:26:09.303Z,100931.94
2022-12-25T04:28:54.741Z,100939.09
2022-12-25T04:31:40.227Z,100938.03
2022-12-25T04:34:25.604Z,100937.00
2022-12-25T04:36:53.542Z,100878.38
2022-12-25T04:39:21.489Z,100944.34
2022-12-25T04:41:50.795Z,100950.34
2022-12-25T04:44:18.744Z,100959.50
2022-12-25T04:46:46.797Z,100947.63
2022-12-25T04:49:14.794Z,100957.66
2022-12-25T04:51:42.743Z,100968.56
2022-12-25T04:54:10.779Z,100971.03
2022-12-25T04:56:45.291Z,100984.56
2022-12-25T04:59:15.190Z,100996.50
2022-12-25T05:01:43.207Z,101004.63
2022-12-25T05:04:11.384Z,101003.56
2022-12-25T05:06:40.358Z,101002.47
2022-12-25T05:09:08.327Z,101009.28
2022-12-25T05:11:36.270Z,101006.66
2022-12-25T05:14:04.196Z,101010.34
2022-12-25T05:16:33.691Z,101027.34
2022-12-25T05:19:01.653Z,101017.06
2022-12-25T05:21:29.609Z,100993.50
2022-12-25T05:23:57.546Z,101017.06
2022-12-25T05:26:27.603Z,101014.19
2022-12-25T05:28:56.009Z,101001.56
2022-12-25T05:31:24.466Z,101010.91
2022-12-25T05:33:53.983Z,101018.06
2022-12-25T05:36:21.945Z,101014.22
2022-12-25T05:38:49.903Z,101019.06
2022-12-25T05:41:17.847Z,101019.91
2022-12-25T05:43:45.808Z,101018.94
2022-12-25T05:46:15.046Z,101026.56
2022-12-25T05:48:43.128Z,101032.72
2022-12-25T05:51:14.264Z,101042.78
2022-12-25T05:53:43.621Z,101041.44
2022-12-25T05:56:11.805Z,101056.03
2022-12-25T05:58:41.011Z,101064.00
2022-12-25T06:01:12.240Z,101069.09
2022-12-25T06:03:40.289Z,101066.28
2022-12-25T06:06:08.521Z,101061.19
2022-12-25T06:08:38.081Z,101067.09
2022-12-25T06:11:07.509Z,101068.56
2022-12-25T06:13:36.752Z,101063.56
2022-12-25T06:16:05.859Z,101067.16
2022-12-25T06:18:36.610Z,101079.66
2022-12-25T06:21:08.429Z,101057.88
2022-12-25T06:23:38.271Z,101086.66
2022-12-25T06:26:07.514Z,101088.00
2022-12-25T06:28:35.538Z,101091.13
2022-12-25T06:31:07.596Z,101091.94
2022-12-25T06:33:35.739Z,101107.94
2022-12-25T06:36:07.365Z,101109.25
2022-12-25T06:38:35.924Z,101110.56
2022-12-25T06:41:10.458Z,101119.09
2022-12-25T06:43:38.844Z,101121.75
2022-12-25T06:46:09.811Z,101118.59
2022-12-25T06:48:39.409Z,101136.41
2022-12-25T06:51:08.365Z,101135.97
2022-12-25T06:53:40.206Z,101135.78
2022-12-25T06:56:15.483Z,101129.84
2022-12-25T06:58:44.525Z,101131.53
2022-12-25T07:01:18.903Z,101137.38
2022-12-25T07:03:48.534Z,101141.34
2022-12-25T07:06:16.471Z,101141.88
2022-12-25T07:08:44.470Z,101145.97
2022-12-25T07:11:13.788Z,101164.56
2022-12-25T07:13:41.785Z,101162.25
2022-12-25T07:16:09.902Z,101167.03
2022-12-25T07:18:38.067Z,101171.34
2022-12-25T07:21:10.254Z,101170.25
2022-12-25T07:23:38.314Z,101145.25
2022-12-25T07:26:07.038Z,101167.66
2022-12-25T07:28:36.460Z,101180.19
2022-12-25T07:31:05.305Z,101178.63
2022-12-25T07:33:34.009Z,101172.34
2022-12-25T07:36:02.261Z,101173.88
2022-12-25T07:38:30.362Z,101184.25
2022-12-25T07:40:58.760Z,101180.34
2022-12-25T07:43:27.017Z,101187.88
2022-12-25T07:46:01.063Z,101196.06
2022-12-25T07:48:29.701Z,101205.81
2022-12-25T07:50:59.522Z,101208.19
2022-12-25T07:53:27.683Z,101207.16
2022-12-25T07:56:00.052Z,101217.94
2022-12-25T07:58:28.478Z,101208.75
2022-12-25T08:00:56.974Z,101211.78
2022-12-25T08:03:26.578Z,101213.31
2022-12-25T08:05:54.668Z,101218.13
2022-12-25T08:08:22.584Z,101220.34
2022-12-25T08:10:50.498Z,101226.09
2022-12-25T08:13:18.430Z,101224.25
2022-12-25T08:15:46.367Z,101230.50
2022-12-25T08:18:14.327Z,101223.56
2022-12-25T08:20:43.676Z,101221.41
2022-12-25T08:23:11.682Z,101230.31
2022-12-25T08:25:39.635Z,101232.19
2022-12-25T08:28:07.635Z,101227.69
2022-12-25T08:30:35.649Z,101242.00
2022-12-25T08:33:03.625Z,101242.38
2022-12-25T08:35:34.213Z,101242.00
2022-12-25T08:38:03.871Z,101242.78
2022-12-25T08:40:32.480Z,101230.06
2022-12-25T08:43:00.507Z,101229.84
2022-12-25T08:45:34.572Z,101233.72
2022-12-25T08:48:03.043Z,101226.34
2022-12-25T08:50:31.018Z,101222.75
2022-12-25T08:52:58.976Z,101221.28
2022-12-25T08:55:28.403Z,101216.41
2022-12-25T08:57:56.338Z,101224.16
2022-12-25T09:00:24.312Z,101219.94
2022-12-25T09:02:52.263Z,101217.00
2022-12-25T09:05:20.227Z,101228.22
2022-12-25T09:07:48.187Z,101216.09
2022-12-25T09:10:16.279Z,101222.50
2022-12-25T09:12:45.640Z,101225.09
2022-12-25T09:15:13.643Z,101175.94
2022-12-25T09:17:41.611Z,101226.38
2022-12-25T09:20:09.893Z,101219.78
2022-12-25T09:22:37.860Z,101216.97
2022-12-25T09:25:06.543Z,101212.63
2022-12-25T09:27:34.461Z,101231.97
2022-12-25T09:30:05.198Z,101234.78
2022-12-25T09:32:33.427Z,101235.44
2022-12-25T09:35:01.338Z,101237.06
2022-12-25T09:37:30.043Z,101228.44
2022-12-25T09:39:58.013Z,101233.69
2022-12-25T09:42:28.704Z,101236.22
2022-12-25T09:45:00.254Z,101236.91
2022-12-25T09:47:33.223Z,101230.75
2022-12-25T09:50:05.327Z,101229.13
2022-12-25T09:52:42.537Z,101231.59
2022-12-25T09:55:19.962Z,101190.38
2022-12-25T09:57:52.792Z,101237.25
2022-12-25T10:00:22.496Z,101234.88
2022-12-25T10:03:18.097Z,101238.59
2022-12-25T10:06:12.396Z,101245.97
2022-12-25T10:09:01.017Z,101238.88
2022-12-25T10:11:43.343Z,101236.28
2022-12-25T10:14:22.038Z,101208.81
2022-12-25T10:17:01.789Z,101247.28
2022-12-25T10:19:41.039Z,101254.16
2022-12-25T10:22:15.680Z,101241.66
2022-12-25T10:24:50.044Z,101248.25
2022-12-25T10:27:20.994Z,101246.41
2022-12-25T10:29:53.571Z,101255.97
2022-12-25T10:32:21.895Z,101244.19
2022-12-25T10:34:51.561Z,101257.56
2022-12-25T10:37:19.508Z,101243.66
2022-12-25T10:39:47.417Z,101255.94
2022-12-25T10:42:40.269Z,101252.56
2022-12-25T10:45:10.287Z,101248.06
2022-12-25T10:47:42.491Z,101258.09
2022-12-25T10:50:19.035Z,101246.59
2022-12-25T10:53:00.293Z,101250.44
2022-12-25T10:55:29.449Z,101254.50
2022-12-25T10:57:58.754Z,101266.72
2022-12-25T11:00:29.028Z,101243.88
2022-12-25T11:02:57.645Z,101263.00
2022-12-25T11:05:29.884Z,101263.28
2022-12-25T11:08:00.285Z,101264.50
2022-12-25T11:10:31.952Z,101267.16
2022-12-25T11:13:01.235Z,101276.84
2022-12-25T11:15:36.399Z,101277.41
2022-12-25T11:18:04.927Z,101276.63
2022-12-25T11:20:34.232Z,101272.03
2022-12-25T11:23:02.182Z,101258.28
2022-12-25T11:25:30.271Z,101264.06
2022-12-25T11:28:02.061Z,101237.88
2022-12-25T11:30:31.002Z,101240.63
2022-12-25T11:33:01.381Z,101268.00
2022-12-25T11:35:33.369Z,101274.59
2022-12-25T11:38:04.535Z,101267.09
2022-12-25T11:40:41.672Z,101258.38
2022-12-25T11:43:15.201Z,101253.16
2022-12-25T11:45:48.719Z,101256.22
2022-12-25T11:48:20.600Z,101261.25
2022-12-25T11:50:52.802Z,101254.78
2022-12-25T11:53:27.699Z,101253.69
2022-12-25T11:56:00.987Z,101269.00
2022-12-25T11:58:33.146Z,101265.47
2022-12-25T12:01:06.058Z,101259.88
2022-12-25T12:03:37.659Z,101270.22
2022-12-25T12:06:13.689Z,101269.00
2022-12-25T12:08:44.027Z,101275.88
2022-12-25T12:11:18.801Z,101287.09
2022-12-25T12:14:03.503Z,101283.19
2022-12-25T12:16:31.738Z,101286.66
2022-12-25T12:18:59.882Z,101276.84
2022-12-25T12:21:29.552Z,101267.03
2022-12-25T12:24:05.880Z,101270.72
2022-12-25T12:26:38.169Z,101279.03
2022-12-25T12:29:08.975Z,101283.31
2022-12-25T12:31:43.339Z,101285.84
2022-12-25T12:34:24.247Z,101282.03
2022-12-25T12:36:54.256Z,101293.81
2022-12-25T12:39:27.921Z,101287.38
2022-12-25T12:41:55.947Z,101300.28
2022-12-25T12:44:28.127Z,101305.84
2022-12-25T12:46:58.099Z,101301.94
2022-12-25T12:49:28.660Z,101300.38
2022-12-25T12:52:08.476Z,101297.41
2022-12-25T12:54:53.781Z,101278.34
2022-12-25T12:57:27.130Z,101299.75
2022-12-25T12:59:55.218Z,101304.28
2022-12-25T13:02:54.057Z,101296.53
2022-12-25T13:05:35.717Z,101308.94
2022-12-25T13:08:17.727Z,101304.72
2022-12-25T13:10:50.768Z,101303.34
2022-12-25T13:13:23.220Z,101311.00
2022-12-25T13:15:52.795Z,101315.31
2022-12-25T13:18:21.894Z,101308.84
2022-12-25T13:20:55.150Z,101310.28
2022-12-25T13:23:28.024Z,101314.75
2022-12-25T13:25:59.485Z,101305.31
2022-12-25T13:28:29.344Z,101317.53
2022-12-25T13:31:04.169Z,101314.19
2022-12-25T13:33:32.381Z,101315.03
2022-12-25T13:36:00.588Z,101321.75
2022-12-25T13:38:29.937Z,101309.13
2022-12-25T13:41:17.650Z,101321.78
2022-12-25T13:43:46.920Z,101318.25
2022-12-25T13:46:15.969Z,101319.63
2022-12-25T13:48:44.167Z,101327.81
2022-12-25T13:51:17.076Z,101320.97
2022-12-25T13:53:45.450Z,101331.84
2022-12-25T13:56:17.007Z,101335.69
2022-12-25T13:58:48.759Z,101318.44
2022-12-25T14:01:18.660Z,101331.63
2022-12-25T14:03:48.667Z,101335.13
2022-12-25T14:06:20.176Z,101355.88
2022-12-25T14:08:49.296Z,101343.06
2022-12-25T14:11:21.663Z,101354.81
2022-12-25T14:13:53.059Z,101356.09
2022-12-25T14:16:22.220Z,101334.09
2022-12-25T14:18:55.044Z,101355.31
2022-12-25T14:21:28.677Z,101363.72
2022-12-25T14:23:57.467Z,101357.44
2022-12-25T14:26:29.066Z,101367.09
2022-12-25T14:29:15.355Z,101369.91
2022-12-25T14:31:46.373Z,101370.38
2022-12-25T14:34:18.971Z,101363.66
2022-12-25T14:36:47.783Z,101377.47
2022-12-25T14:39:28.671Z,101371.44
2022-12-25T14:41:58.492Z,101369.38
2022-12-25T14:44:34.048Z,101374.38
2022-12-25T14:47:06.995Z,101375.34
2022-12-25T14:49:34.935Z,101383.50
2022-12-25T14:52:11.036Z,101395.34
2022-12-25T14:54:39.022Z,101402.56
2022-12-25T14:57:08.420Z,101402.81
2022-12-25T14:59:36.360Z,101404.69
2022-12-25T15:02:04.624Z,101404.06
2022-12-25T15:04:32.748Z,101408.91
2022-12-25T15:07:07.232Z,101397.25
2022-12-25T15:09:36.197Z,101378.09
2022-12-25T15:12:04.709Z,101395.59
2022-12-25T15:14:36.480Z,101401.75
2022-12-25T15:17:04.466Z,101408.00
2022-12-25T15:19:38.016Z,101406.19
2022-12-25T15:22:07.151Z,101411.25
2022-12-25T15:24:35.425Z,101421.84
2022-12-25T15:27:05.464Z,101415.34
2022-12-25T15:32:24.862Z,101422.00
2022-12-25T15:34:53.949Z,101430.22
2022-12-25T15:37:22.012Z,101427.31
2022-12-25T15:39:49.947Z,101427.53
2022-12-25T15:42:20.884Z,101428.13
2022-12-25T15:44:50.320Z,101427.94
2022-12-25T15:47:20.224Z,101427.94
2022-12-25T15:49:49.083Z,101414.44
2022-12-25T15:52:18.187Z,101435.31
2022-12-25T15:54:46.400Z,101447.75
2022-12-25T15:57:19.580Z,101438.56
2022-12-25T15:59:47.928Z,101441.09
2022-12-25T16:02:19.936Z,101439.09
2022-12-25T16:04:49.046Z,101435.72
2022-12-25T16:07:19.149Z,101444.72
2022-12-25T16:09:47.549Z,101434.19
2022-12-25T16:12:15.484Z,101444.53
2022-12-25T16:14:43.465Z,101442.78
2022-12-25T16:17:13.806Z,101440.97
2022-12-25T16:19:44.769Z,101441.84
2022-12-25T16:22:13.810Z,101435.63
2022-12-25T16:24:41.943Z,101436.78
2022-12-25T16:27:09.883Z,101449.00
2022-12-25T16:29:37.807Z,101440.16
2022-12-25T16:32:05.987Z,101439.19
2022-12-25T16:34:33.916Z,101443.38
2022-12-25T16:37:03.383Z,101455.22
2022-12-25T16:39:31.345Z,101454.31
2022-12-25T16:41:59.344Z,101462.41
2022-12-25T16:44:27.348Z,101464.94
2022-12-25T16:46:55.449Z,101461.81
2022-12-25T16:49:23.428Z,101462.88
2022-12-25T16:51:51.376Z,101462.31
2022-12-25T16:54:20.714Z,101466.34
2022-12-25T16:56:48.662Z,101466.13
2022-12-25T16:59:16.617Z,101477.53
2022-12-25T17:01:44.739Z,101481.75
2022-12-25T17:04:12.783Z,101470.41
2022-12-25T17:06:40.960Z,101478.81
2022-12-25T17:09:08.896Z,101487.44
2022-12-25T17:11:38.273Z,101488.19
2022-12-25T17:14:06.869Z,101485.44
2022-12-25T17:16:36.852Z,101483.78
2022-12-25T17:19:08.181Z,101497.06
2022-12-25T17:21:38.306Z,101499.69
2022-12-25T17:24:07.332Z,101489.88
2022-12-25T17:26:35.298Z,101495.97
2022-12-25T17:29:05.046Z,101501.44
2022-12-25T17:31:33.098Z,101498.97
2022-12-25T17:34:02.217Z,101500.66
2022-12-25T17:36:30.202Z,101495.56
2022-12-25T17:38:59.588Z,101500.88
2022-12-25T17:41:28.038Z,101507.59
2022-12-25T17:43:56.178Z,101507.72
2022-12-25T17:46:27.288Z,101522.44
2022-12-25T17:48:58.143Z,101520.66
2022-12-25T17:51:28.750Z,101522.16
2022-12-25T17:53:59.187Z,101508.28
2022-12-25T17:56:27.461Z,101516.75
2022-12-25T17:58:56.968Z,101529.75
2022-12-25T18:01:28.514Z,101531.59
2022-12-25T18:03:56.679Z,101533.34
2022-12-25T18:06:26.230Z,101539.09
2022-12-25T18:08:55.788Z,101524.47
2022-12-25T18:11:29.136Z,101545.50
2022-12-25T18:13:58.340Z,101547.97
2022-12-25T18:16:28.522Z,101546.38
2022-12-25T18:18:56.472Z,101547.19
2022-12-25T18:21:24.785Z,101558.69
2022-12-25T18:23:53.099Z,101557.84
2022-12-25T18:26:21.835Z,101542.66
2022-12-25T18:28:50.614Z,101554.97
2022-12-25T18:31:21.832Z,101551.91
2022-12-25T18:33:52.143Z,101549.34
2022-12-25T18:36:22.551Z,101550.28
2022-12-25T18:38:51.531Z,101549.53
2022-12-25T18:41:20.328Z,101544.16
2022-12-25T18:43:54.707Z,101539.84
2022-12-25T18:46:25.154Z,101543.19
2022-12-25T18:48:55.109Z,101543.00
2022-12-25T18:51:23.311Z,101550.63
2022-12-25T18:53:51.720Z,101551.63
2022-12-25T18:56:19.785Z,101551.56
2022-12-25T18:58:48.617Z,101542.41
2022-12-25T19:01:19.641Z,101505.97
2022-12-25T19:03:49.103Z,101558.31
2022-12-25T19:06:25.210Z,101559.09
2022-12-25T19:08:53.667Z,101558.72
2022-12-25T19:11:22.338Z,101562.84
2022-12-25T19:13:50.299Z,101551.47
2022-12-25T19:16:18.440Z,101558.75
2022-12-25T19:18:46.931Z,101538.94
2022-12-25T19:21:16.047Z,101554.06
2022-12-25T19:23:45.638Z,101548.00
2022-12-25T19:26:13.612Z,101544.38
2022-12-25T19:28:42.069Z,101538.16
2022-12-25T19:31:11.839Z,101550.09
2022-12-25T19:33:41.555Z,101561.41
2022-12-25T19:36:12.292Z,101568.34
2022-12-25T19:38:40.331Z,101567.44
2022-12-25T19:41:12.090Z,101568.25
2022-12-25T19:43:42.021Z,101579.44
2022-12-25T19:46:15.621Z,101589.84
2022-12-25T19:48:43.594Z,101594.28
2022-12-25T19:51:16.702Z,101534.94
2022-12-25T19:53:44.654Z,101599.31
2022-12-25T19:56:14.282Z,101597.50
2022-12-25T19:58:42.307Z,101595.75
2022-12-25T20:01:14.052Z,101585.44
2022-12-25T20:03:46.330Z,101598.09
2022-12-25T20:06:18.937Z,101597.06
2022-12-25T20:08:47.785Z,101591.88
2022-12-25T20:11:18.746Z,101588.34
2022-12-25T20:13:46.907Z,101586.59
2022-12-25T20:16:14.928Z,101590.00
2022-12-25T20:18:43.769Z,101557.16
2022-12-25T20:21:14.735Z,101588.53
2022-12-25T20:23:43.037Z,101597.19
2022-12-25T20:26:12.495Z,101612.34
2022-12-25T20:28:43.003Z,101607.03
2022-12-25T20:31:14.764Z,101600.78
2022-12-25T20:33:42.944Z,101613.66
2022-12-25T20:36:11.799Z,101616.91
2022-12-25T20:38:39.978Z,101587.19
2022-12-25T20:41:27.333Z,101614.22
2022-12-25T20:43:57.719Z,101604.66
2022-12-25T20:46:25.947Z,101615.28
2022-12-25T20:48:54.090Z,101619.38
2022-12-25T20:51:24.480Z,101612.44
2022-12-25T20:53:52.622Z,101607.25
2022-12-25T20:56:22.348Z,101614.94
2022-12-25T20:58:54.625Z,101613.09
2022-12-25T21:01:24.406Z,101566.16
2022-12-25T21:03:52.657Z,101618.88
2022-12-25T21:06:21.243Z,101612.25
2022-12-25T21:08:49.340Z,101612.53
2022-12-25T21:11:18.177Z,101615.25
2022-12-25T21:13:46.909Z,101607.88
2022-12-25T21:16:17.234Z,101637.66
2022-12-25T21:18:46.801Z,101631.91
2022-12-25T21:21:14.750Z,101617.34
2022-12-25T21:23:43.198Z,101624.25
2022-12-25T21:26:13.482Z,101628.03
2022-12-25T21:28:41.476Z,101619.56
2022-12-25T21:31:10.098Z,101619.72
2022-12-25T21:33:52.724Z,101634.41
2022-12-25T21:36:25.131Z,101630.19
2022-12-25T21:38:55.384Z,101622.41
2022-12-25T21:41:23.721Z,101624.97
2022-12-25T21:43:52.271Z,101612.41
2022-12-25T21:46:20.684Z,101619.09
2022-12-25T21:48:49.377Z,101610.34
2022-12-25T21:51:36.983Z,101606.00
2022-12-25T21:54:07.514Z,101609.22
2022-12-25T21:56:43.491Z,101609.06
2022-12-25T21:59:15.236Z,101602.13
2022-12-25T22:01:43.988Z,101613.03
2022-12-25T22:04:12.355Z,101623.00
2022-12-25T22:06:58.196Z,101620.28
2022-12-25T22:09:27.576Z,101609.25
2022-12-25T22:12:12.891Z,101593.28
2022-12-25T22:14:56.270Z,101613.94
2022-12-25T22:17:44.149Z,101608.66
2022-12-25T22:20:14.351Z,101585.84
2022-12-25T22:22:42.300Z,101609.84
2022-12-25T22:25:12.348Z,101612.22
2022-12-25T22:27:41.370Z,101610.22
2022-12-25T22:30:11.866Z,101603.50
2022-12-25T22:32:40.395Z,101623.06
2022-12-25T22:35:09.432Z,101627.44
2022-12-25T22:37:37.574Z,101625.66
2022-12-25T22:40:06.835Z,101628.22
2022-12-25T22:42:36.152Z,101628.31
2022-12-25T22:45:04.770Z,101630.03
2022-12-25T22:47:32.733Z,101631.28
2022-12-25T22:50:00.679Z,101641.50
2022-12-25T22:52:28.708Z,101644.00
2022-12-25T22:54:56.681Z,101649.22
2022-12-25T22:57:24.604Z,101625.56
2022-12-25T22:59:54.269Z,101647.47
2022-12-25T23:02:22.485Z,101643.31
2022-12-25T23:04:50.602Z,101657.88
2022-12-25T23:07:18.628Z,101670.13
2022-12-25T23:09:46.626Z,101675.34
2022-12-25T23:12:28.474Z,101677.09
2022-12-25T23:14:58.330Z,101695.31
2022-12-25T23:17:43.788Z,101691.00
2022-12-25T23:20:32.214Z,101691.16
2022-12-25T23:23:17.877Z,101704.91
2022-12-25T23:26:03.182Z,101716.78
2022-12-25T23:28:48.614Z,101712.31
2022-12-25T23:31:18.075Z,101727.28
2022-12-25T23:33:46.051Z,101723.16
2022-12-25T23:36:13.980Z,101733.13
2022-12-25T23:38:41.932Z,101742.09
2022-12-25T23:41:09.884Z,101738.66
2022-12-25T23:43:37.880Z,101746.22
2022-12-25T23:46:06.037Z,101744.50
2022-12-25T23:48:35.350Z,101745.38
2022-12-25T23:51:04.570Z,101742.16
2022-12-25T23:53:32.710Z,101767.00
2022-12-25T23:56:00.976Z,101766.19
2022-12-25T23:58:30.084Z,101749.94
